Time;durP1;ratioP1;P1;durP2;ratioP2;P2;SDS_P1;SDS_P2;PMS_P1;PMS_P2;Temp;Humidity;BMP_temperature;BMP_pressure;BME280_temperature;BME280_humidity;BME280_pressure;Samples;Min_cycle;Max_cycle;Signal;HPM_P1;HPM_P2
2024/01/29 07:15:06;;;;;;;;;22.00;21.33;;;;;7.47;100.00;152871.00;5017434;27;45389;-86
2024/01/29 07:17:32;;;;;;;;;31.67;31.67;;;;;7.88;100.00;152976.03;5005444;27;45435;-83
2024/01/29 07:19:57;;;;;;;;;24.67;22.67;;;;;8.18;100.00;153054.84;5030498;27;48068;-83
2024/01/29 07:22:24;;;;;;;;;28.67;21.67;;;;;8.47;100.00;153127.13;4994280;28;45411;-82
2024/01/29 07:24:49;;;;;;;;;24.33;23.33;;;;;8.63;100.00;153170.47;4987494;27;46147;-81
2024/01/29 07:27:16;;;;;;;;;21.67;18.00;;;;;8.81;100.00;153216.47;4991418;27;45495;-80
2024/01/29 07:29:41;;;;;;;;;22.67;17.33;;;;;9.00;100.00;153263.78;4987846;28;45409;-82
2024/01/29 07:32:06;;;;;;;;;25.33;22.00;;;;;9.14;100.00;153300.56;4988871;28;45552;-80
2024/01/29 07:34:32;;;;;;;;;23.33;20.33;;;;;9.23;100.00;153324.22;4993361;28;45853;-81
2024/01/29 07:36:58;;;;;;;;;25.00;24.00;;;;;9.47;100.00;153384.69;4986265;28;45776;-81
2024/01/29 07:39:24;;;;;;;;;22.33;20.33;;;;;9.69;100.00;153442.56;4998671;28;45512;-81
2024/01/29 07:41:49;;;;;;;;;17.00;16.33;;;;;9.90;100.00;153496.50;4996276;28;45948;-81
2024/01/29 07:44:17;;;;;;;;;22.00;22.00;;;;;10.09;100.00;153543.78;4989916;28;46999;-81
2024/01/29 07:46:43;;;;;;;;;18.67;18.67;;;;;10.10;100.00;153547.75;5006723;27;45722;-81
2024/01/29 07:49:09;;;;;;;;;20.33;19.67;;;;;10.15;100.00;151830.69;5012518;27;45418;-82
2024/01/29 07:51:34;;;;;;;;;27.67;21.67;;;;;10.47;100.00;141219.22;4999153;27;45552;-81
2024/01/29 07:54:00;;;;;;;;;24.00;20.67;;;;;10.56;100.00;124395.19;4988310;28;46107;-82
2024/01/29 07:56:26;;;;;;;;;20.67;20.00;;;;;10.61;100.00;107509.69;4990931;27;45454;-82
2024/01/29 07:58:51;;;;;;;;;22.67;21.67;;;;;10.61;100.00;70703.06;4992337;27;45468;-90
2024/01/29 08:01:16;;;;;;;;;28.00;24.00;;;;;10.86;100.00;35067.59;4993612;27;45559;-91
2024/01/29 08:03:43;;;;;;;;;19.00;16.00;;;;;10.99;100.00;10011.38;5008078;27;45387;-92
2024/01/29 08:06:08;;;;;;;;;20.00;18.33;;;;;11.05;99.44;-540.97;4972797;28;45645;-91
2024/01/29 08:08:36;;;;;;;;;24.33;21.00;;;;;11.09;99.24;-1024.31;4987487;27;45418;-92
2024/01/29 08:11:02;;;;;;;;;24.00;20.33;;;;;10.95;98.50;-6707.06;4995694;28;45654;-92
2024/01/29 08:13:27;;;;;;;;;20.00;18.00;;;;;10.95;98.13;-7983.59;4987755;28;47348;-89
2024/01/29 08:15:53;;;;;;;;;22.00;17.67;;;;;10.91;98.01;-10413.19;4991048;28;45602;-90
2024/01/29 08:18:19;;;;;;;;;19.33;17.33;;;;;11.11;97.69;-12616.59;4996556;27;45879;-90
2024/01/29 08:20:44;;;;;;;;;21.00;20.67;;;;;11.13;97.44;-13998.13;4979593;28;45435;-92
2024/01/29 08:23:10;;;;;;;;;19.00;18.67;;;;;11.23;97.19;-15885.75;4995360;28;47507;-92
2024/01/29 08:25:35;;;;;;;;;24.67;18.67;;;;;11.27;97.43;-14596.53;5021256;28;45289;-96
2024/01/29 08:28:01;;;;;;;;;20.00;19.00;;;;;10.94;97.44;-14152.81;4982412;28;45627;-89
2024/01/29 08:30:26;;;;;;;;;20.00;16.67;;;;;11.16;96.82;-16731.25;4981669;28;45606;-90
2024/01/29 08:32:51;;;;;;;;;20.00;20.00;;;;;11.24;96.69;-16867.56;5038480;28;49830;-90
2024/01/29 08:35:17;;;;;;;;;22.00;18.33;;;;;11.50;96.55;-17655.47;4975491;28;45399;-88
2024/01/29 08:37:42;;;;;;;;;20.67;20.67;;;;;11.24;96.46;-18216.31;5019348;28;45574;-88
2024/01/29 08:40:08;;;;;;;;;26.67;20.67;;;;;11.23;96.06;-19269.53;4980694;28;45456;-88
2024/01/29 08:42:33;;;;;;;;;20.33;20.33;;;;;11.43;95.78;-19481.66;4985958;28;45381;-88
2024/01/29 08:44:59;;;;;;;;;20.00;18.00;;;;;11.71;95.98;-19524.81;4977946;28;45400;-92
2024/01/29 08:47:25;;;;;;;;;21.67;18.00;;;;;11.73;95.54;-19525.34;4974238;28;46551;-91
2024/01/29 08:49:51;;;;;;;;;22.67;21.00;;;;;11.56;95.21;-19520.88;4987302;28;45479;-93
2024/01/29 08:52:17;;;;;;;;;23.00;20.67;;;;;11.60;95.41;-19521.97;4976030;28;46198;-90
2024/01/29 08:54:42;;;;;;;;;25.67;21.33;;;;;11.62;95.68;-19522.50;4974347;28;46225;-94
2024/01/29 08:57:07;;;;;;;;;24.33;20.00;;;;;11.68;95.08;-19523.84;4967975;28;45891;-91
2024/01/29 08:59:33;;;;;;;;;20.33;19.00;;;;;11.24;95.52;-19512.25;4982061;28;45466;-90
2024/01/29 09:01:59;;;;;;;;;25.33;21.67;;;;;11.96;95.71;-19531.41;4980495;27;47357;-90
2024/01/29 09:04:24;;;;;;;;;20.33;19.00;;;;;11.61;95.36;-19522.09;4991577;27;45428;-90
2024/01/29 09:06:50;;;;;;;;;22.00;19.67;;;;;11.71;95.10;-19524.66;4975828;28;45519;-90
2024/01/29 09:09:16;;;;;;;;;22.00;21.00;;;;;11.73;95.11;-19525.34;4966090;28;45514;-89
2024/01/29 09:11:41;;;;;;;;;18.67;18.67;;;;;11.56;94.54;-19520.75;4996232;27;47179;-89
2024/01/29 09:14:06;;;;;;;;;24.67;21.67;;;;;12.16;95.06;-19536.53;4987224;28;45695;-89
2024/01/29 09:16:32;;;;;;;;;22.67;20.67;;;;;11.87;94.48;-19528.84;5042487;27;45365;-90
2024/01/29 09:18:58;;;;;;;;;21.33;19.00;;;;;12.04;94.75;-19533.44;5046747;27;45400;-90
2024/01/29 09:21:24;;;;;;;;;28.33;20.33;;;;;12.23;94.56;-19538.41;4979389;28;48218;-92
2024/01/29 09:24:04;;;;;;;;;21.00;19.00;;;;;12.06;94.21;-19533.81;5001818;27;45608;-96
2024/01/29 09:26:30;;;;;;;;;18.67;17.33;;;;;11.60;94.04;-19521.97;4995830;28;45512;-94
2024/01/29 09:28:55;;;;;;;;;19.67;19.33;;;;;11.44;93.88;-19517.66;4984620;23;45502;-86
2024/01/29 09:31:20;;;;;;;;;23.67;18.67;;;;;11.19;94.29;-19511.19;4956222;28;46104;-85
2024/01/29 09:33:46;;;;;;;;;14.00;12.67;;;;;11.50;94.21;-19519.16;4969647;28;46136;-86
2024/01/29 09:36:11;;;;;;;;;14.00;13.00;;;;;12.11;93.94;-19535.19;4954994;28;45474;-85
2024/01/29 09:38:36;;;;;;;;;13.67;13.67;;;;;12.24;93.84;-19538.69;4954586;28;45316;-85
2024/01/29 09:41:03;;;;;;;;;14.33;12.33;;;;;12.17;93.53;-19536.78;4954364;28;46901;-85
2024/01/29 09:43:29;;;;;;;;;16.67;15.33;;;;;12.34;93.55;-19541.38;4954635;28;45358;-85
2024/01/29 09:45:54;;;;;;;;;15.67;15.67;;;;;12.31;93.27;-19540.44;4955423;28;45443;-85
2024/01/29 09:48:21;;;;;;;;;17.00;15.33;;;;;12.10;93.32;-19534.91;4955140;28;45469;-85
2024/01/29 09:51:00;;;;;;;;;14.33;14.00;;;;;11.47;93.29;-19518.34;4953119;28;47972;-85
2024/01/29 09:53:26;;;;;;;;;9.67;9.67;;;;;11.37;92.83;-19515.91;4953933;28;45429;-85
2024/01/29 09:55:57;;;;;;;;;18.33;14.33;;;;;12.56;91.88;-19547.16;4952888;28;45503;-85
2024/01/29 09:58:22;;;;;;;;;16.67;15.33;;;;;12.28;91.81;-19539.63;4954056;28;45917;-85
2024/01/29 10:00:48;;;;;;;;;7.33;7.33;;;;;12.44;91.88;-19543.94;4953434;28;47875;-85
2024/01/29 10:03:21;;;;;;;;;15.33;13.33;;;;;12.75;91.69;-19552.00;4953758;28;45359;-85
2024/01/29 10:05:47;;;;;;;;;12.00;11.00;;;;;13.03;91.74;-19559.53;4955704;28;45670;-85
2024/01/29 10:08:14;;;;;;;;;13.33;12.00;;;;;12.12;91.82;-19535.44;4954608;28;45532;-85
2024/01/29 10:10:40;;;;;;;;;11.67;10.67;;;;;12.10;91.42;-19534.91;4954526;28;46319;-85
2024/01/29 10:13:07;;;;;;;;;10.67;10.33;;;;;13.12;91.55;-19561.81;4955299;28;46301;-84
2024/01/29 10:15:32;;;;;;;;;14.33;11.00;;;;;12.50;91.27;-19545.53;4967517;28;45453;-84
2024/01/29 10:17:58;;;;;;;;;12.00;12.00;;;;;12.59;91.45;-19547.84;4954060;28;46425;-84
2024/01/29 10:20:24;;;;;;;;;9.00;9.00;;;;;12.63;90.80;-19548.91;4954546;28;45539;-84
2024/01/29 10:23:29;;;;;;;;;11.67;11.67;;;;;13.54;90.57;-19572.84;4955648;28;45279;-84
2024/01/29 10:25:59;;;;;;;;;11.00;11.00;;;;;12.81;90.30;-19553.63;4952610;28;45475;-84
2024/01/29 10:28:26;;;;;;;;;14.00;13.00;;;;;12.93;89.51;-19556.84;4956894;28;45481;-84
2024/01/29 10:30:55;;;;;;;;;17.33;14.33;;;;;13.80;89.28;-19579.56;4953535;28;45445;-84
2024/01/29 10:33:22;;;;;;;;;14.00;14.00;;;;;13.61;88.90;-19574.75;4953381;28;45489;-85
2024/01/29 10:35:49;;;;;;;;;14.33;11.00;;;;;13.04;88.95;-19559.66;4954735;28;45550;-84
2024/01/29 10:38:18;;;;;;;;;8.67;8.67;;;;;12.66;88.72;-19549.72;4952916;28;45486;-85
2024/01/29 10:40:44;;;;;;;;;9.33;9.33;;;;;13.76;87.75;-19578.63;5048736;28;48425;-84
2024/01/29 10:43:18;;;;;;;;;14.33;12.33;;;;;13.73;87.83;-19577.97;4955764;28;45553;-85
2024/01/29 10:45:48;;;;;;;;;11.00;11.00;;;;;13.37;88.41;-19568.28;4951032;28;45442;-84
2024/01/29 10:48:37;;;;;;;;;12.67;12.67;;;;;13.04;87.60;-19559.81;4954040;28;45431;-84
2024/01/29 10:51:44;;;;;;;;;13.33;9.33;;;;;12.70;87.04;-19550.66;4953080;28;45583;-86
2024/01/29 10:54:10;;;;;;;;;13.00;11.67;;;;;13.10;86.92;-19561.28;4953076;28;45501;-84
2024/01/29 10:56:36;;;;;;;;;12.00;11.00;;;;;14.29;87.18;-19592.47;4953920;28;45468;-84
2024/01/29 10:59:05;;;;;;;;;13.67;11.67;;;;;13.24;86.29;-19565.06;4953856;28;45982;-86
2024/01/29 11:01:32;;;;;;;;;12.33;12.33;;;;;14.35;86.88;-19594.22;4948843;28;46556;-86
2024/01/29 11:04:00;;;;;;;;;12.67;12.67;;;;;14.44;86.04;-19596.38;4953519;28;45422;-85
2024/01/29 11:06:40;;;;;;;;;11.33;11.33;;;;;13.69;85.45;-19576.88;4953751;28;45347;-86
2024/01/29 11:09:11;;;;;;;;;15.67;11.67;;;;;14.46;85.78;-19597.03;4953055;28;45699;-86
2024/01/29 11:11:39;;;;;;;;;15.00;12.00;;;;;14.29;85.56;-19592.59;4953312;28;46323;-86
2024/01/29 11:14:07;;;;;;;;;10.33;10.33;;;;;14.59;85.06;-19600.41;4952843;28;45781;-86
2024/01/29 11:16:35;;;;;;;;;14.67;13.67;;;;;14.68;85.40;-19602.81;4952755;28;45741;-86
2024/01/29 11:19:01;;;;;;;;;9.67;9.67;;;;;13.60;85.20;-19574.34;4952258;28;45524;-86
2024/01/29 11:21:35;;;;;;;;;12.67;12.67;;;;;14.42;84.66;-19595.84;4951548;28;48338;-85
2024/01/29 11:24:00;;;;;;;;;14.00;11.67;;;;;13.18;84.62;-19563.44;4968635;28;45439;-85
2024/01/29 11:26:26;;;;;;;;;14.00;10.33;;;;;14.07;84.32;-19586.84;4953379;28;45417;-86
2024/01/29 11:29:07;;;;;;;;;8.00;8.00;;;;;14.96;84.14;-19610.19;4954283;28;45430;-86
2024/01/29 11:31:51;;;;;;;;;9.67;7.67;;;;;14.42;83.62;-19595.97;4953334;28;45409;-86
2024/01/29 11:34:25;;;;;;;;;6.33;6.33;;;;;14.01;83.69;-19585.22;4949733;28;45585;-84
2024/01/29 11:36:54;;;;;;;;;7.00;6.33;;;;;14.19;84.55;-19589.94;4952550;28;45758;-85
2024/01/29 11:39:22;;;;;;;;;7.33;7.33;;;;;14.49;83.80;-19597.84;4953656;28;45367;-85
2024/01/29 11:41:49;;;;;;;;;8.33;7.67;;;;;15.22;83.62;-19616.78;4953095;28;46225;-85
2024/01/29 11:44:18;;;;;;;;;10.67;8.33;;;;;15.40;83.63;-19621.59;4952365;28;45504;-85
2024/01/29 11:46:43;;;;;;;;;5.75;5.75;;;;;14.88;82.98;-19607.91;4952876;28;45398;-85
2024/01/29 11:49:09;;;;;;;;;6.25;6.25;;;;;15.09;82.99;-19613.56;4953385;28;45568;-85
2024/01/29 11:51:34;;;;;;;;;4.67;3.00;;;;;15.37;82.05;-19620.81;4952463;28;47388;-85
2024/01/29 11:53:59;;;;;;;;;5.75;5.75;;;;;15.72;82.24;-19629.94;4952959;28;45577;-85
2024/01/29 11:56:25;;;;;;;;;7.67;6.67;;;;;15.90;82.44;-19634.63;4953284;28;45513;-86
2024/01/29 11:59:01;;;;;;;;;6.50;6.50;;;;;16.01;80.83;-19637.72;4954039;28;45402;-86
2024/01/29 12:01:27;;;;;;;;;5.25;5.25;;;;;15.76;80.54;-19631.00;4949682;28;46404;-86
2024/01/29 12:03:53;;;;;;;;;8.00;6.50;;;;;15.51;80.45;-19624.44;4956187;28;45485;-85
2024/01/29 12:06:18;;;;;;;;;9.50;7.75;;;;;16.21;80.17;-19642.78;4956127;28;45444;-86
2024/01/29 12:08:47;;;;;;;;;8.25;6.00;;;;;15.89;78.82;-19634.34;4955485;28;45567;-85
2024/01/29 12:11:14;;;;;;;;;7.50;7.50;;;;;16.28;79.65;-19644.66;4955712;28;46462;-85
2024/01/29 12:13:40;;;;;;;;;8.00;7.75;;;;;16.14;79.45;-19640.91;4955304;28;45529;-86
2024/01/29 12:16:06;;;;;;;;;5.00;5.00;;;;;16.49;79.04;-19650.16;4955099;28;45442;-85
2024/01/29 12:18:33;;;;;;;;;5.25;5.25;;;;;16.50;78.96;-19650.44;4954435;28;45547;-85
2024/01/29 12:20:59;;;;;;;;;6.00;5.75;;;;;16.04;78.75;-19638.50;4955558;28;46440;-86
2024/01/29 12:23:24;;;;;;;;;7.25;7.25;;;;;16.42;78.28;-19648.28;4955467;28;45510;-85
2024/01/29 12:26:13;;;;;;;;;6.00;5.50;;;;;16.37;77.56;-19646.94;4955569;28;45527;-85
2024/01/29 12:28:39;;;;;;;;;4.50;4.50;;;;;15.96;77.47;-19636.34;4957560;28;45402;-86
2024/01/29 12:31:06;;;;;;;;;6.50;6.50;;;;;15.98;77.99;-19636.75;4955122;28;46215;-87
2024/01/29 12:33:35;;;;;;;;;5.25;5.00;;;;;16.81;77.73;-19658.59;4956212;28;45480;-87
2024/01/29 12:36:15;;;;;;;;;6.00;5.00;;;;;16.87;77.86;-19660.22;4956355;28;45628;-86
2024/01/29 12:38:41;;;;;;;;;7.00;7.00;;;;;16.76;76.98;-19657.13;4955875;28;45434;-86
2024/01/29 12:41:07;;;;;;;;;5.00;5.00;;;;;16.04;76.80;-19638.50;4955376;28;45751;-86
2024/01/29 12:43:32;;;;;;;;;4.50;4.50;;;;;16.13;77.66;-19640.66;4955324;28;45607;-86
2024/01/29 12:46:14;;;;;;;;;6.00;6.00;;;;;16.21;77.35;-19642.94;4954591;28;45856;-85
2024/01/29 12:48:43;;;;;;;;;7.75;6.50;;;;;16.43;77.84;-19648.69;4953875;28;45518;-86
2024/01/29 12:51:12;;;;;;;;;5.25;5.25;;;;;16.49;78.23;-19650.03;4955720;28;46695;-86
2024/01/29 12:53:38;;;;;;;;;6.50;5.50;;;;;16.19;78.15;-19642.41;4953046;28;45583;-86
2024/01/29 12:56:04;;;;;;;;;8.50;6.00;;;;;16.21;78.09;-19642.78;4956229;28;45366;-85
2024/01/29 12:58:29;;;;;;;;;5.25;4.50;;;;;16.26;78.36;-19644.13;4955377;28;45457;-86
2024/01/29 13:00:54;;;;;;;;;5.25;5.25;;;;;16.79;78.10;-19657.94;4954294;28;45967;-86
2024/01/29 13:03:20;;;;;;;;;6.00;5.00;;;;;16.86;76.92;-19659.81;4954942;28;57532;-86
2024/01/29 13:05:46;;;;;;;;;5.75;5.75;;;;;16.71;77.37;-19655.78;4954640;28;45387;-86
2024/01/29 13:08:11;;;;;;;;;5.00;5.00;;;;;17.13;76.83;-19666.78;4955595;28;45418;-86
2024/01/29 13:10:37;;;;;;;;;6.25;5.75;;;;;16.68;75.87;-19655.13;4955132;28;46149;-86
2024/01/29 13:13:07;;;;;;;;;4.50;4.50;;;;;17.27;75.64;-19670.66;4954512;28;45513;-85
2024/01/29 13:15:33;;;;;;;;;5.00;5.00;;;;;16.43;75.20;-19648.56;4955456;28;45438;-85
2024/01/29 13:17:59;;;;;;;;;6.00;4.50;;;;;16.47;75.12;-19649.63;4968567;28;45624;-87
2024/01/29 13:20:25;;;;;;;;;6.00;4.25;;;;;16.72;76.31;-19656.06;4954209;28;46345;-88
2024/01/29 13:22:50;;;;;;;;;5.75;5.75;;;;;16.28;76.27;-19644.66;4969601;28;45645;-87
2024/01/29 13:25:16;;;;;;;;;6.75;6.00;;;;;16.60;75.40;-19652.97;4955523;28;46372;-87
2024/01/29 13:27:41;;;;;;;;;5.50;5.50;;;;;16.20;75.42;-19642.66;4955272;28;45499;-87
2024/01/29 13:30:07;;;;;;;;;5.25;4.50;;;;;16.83;75.99;-19659.00;4951106;28;46407;-87
2024/01/29 13:32:33;;;;;;;;;6.50;5.00;;;;;16.66;76.60;-19654.59;4949892;28;45551;-87
2024/01/29 13:34:58;;;;;;;;;8.25;5.00;;;;;16.30;75.76;-19645.06;4953949;28;45510;-86
2024/01/29 13:37:23;;;;;;;;;7.00;5.25;;;;;16.42;76.23;-19648.28;4956090;28;45624;-87
2024/01/29 13:39:49;;;;;;;;;3.75;3.75;;;;;15.82;75.72;-19632.75;4954692;28;45464;-87
2024/01/29 13:42:14;;;;;;;;;4.25;4.25;;;;;16.21;76.17;-19642.78;4954391;28;45532;-86
2024/01/29 13:44:40;;;;;;;;;4.75;4.25;;;;;17.18;75.96;-19668.25;4953270;28;45485;-87
2024/01/29 13:47:06;;;;;;;;;5.25;4.75;;;;;16.61;76.13;-19653.38;5105240;22;45650;-87
2024/01/29 13:49:32;;;;;;;;;6.25;6.25;;;;;16.61;76.13;-19653.38;5076092;28;45703;-87
2024/01/29 13:51:59;;;;;;;;;4.75;4.75;;;;;16.67;76.19;-19655.00;5076225;28;45385;-87
2024/01/29 13:54:25;;;;;;;;;6.75;5.00;;;;;17.22;75.81;-19669.31;5075971;28;45479;-86
2024/01/29 13:56:51;;;;;;;;;6.00;5.00;;;;;17.26;75.27;-19670.38;5076677;28;45715;-87
2024/01/29 13:59:20;;;;;;;;;4.50;4.50;;;;;16.46;75.25;-19649.50;5075772;28;45592;-86
2024/01/29 14:01:45;;;;;;;;;6.00;5.00;;;;;16.16;76.17;-19641.47;5057714;28;45455;-86
2024/01/29 14:04:10;;;;;;;;;3.25;3.25;;;;;16.11;75.91;-19640.25;5076333;28;45707;-86
2024/01/29 14:06:36;;;;;;;;;5.00;4.00;;;;;16.09;76.02;-19639.72;5076756;28;45536;-87
2024/01/29 14:09:02;;;;;;;;;5.75;4.50;;;;;16.18;75.69;-19642.00;5058106;28;48427;-87
2024/01/29 14:11:30;;;;;;;;;6.00;6.00;;;;;15.63;76.28;-19627.63;5382041;22;45651;-87
2024/01/29 14:13:55;;;;;;;;;3.50;3.50;;;;;17.02;76.90;-19663.97;4994674;27;45615;-86
2024/01/29 14:16:21;;;;;;;;;4.50;4.50;;;;;17.00;76.40;-19663.56;5007257;27;45490;-87
2024/01/29 14:18:48;;;;;;;;;3.00;3.00;;;;;17.01;77.04;-19663.69;4999070;27;45497;-87
2024/01/29 14:21:15;;;;;;;;;5.00;5.00;;;;;16.08;76.20;-19639.31;4991238;27;45466;-87
2024/01/29 14:23:44;;;;;;;;;4.50;4.00;;;;;15.45;76.93;-19622.81;4995057;27;45643;-87
2024/01/29 14:26:12;;;;;;;;;2.50;2.00;;;;;15.22;76.41;-19616.91;5033448;27;45455;-87
2024/01/29 14:28:37;;;;;;;;;3.50;3.50;;;;;15.85;76.81;-19633.28;4994899;27;46148;-87
2024/01/29 14:31:05;;;;;;;;;3.50;3.50;;;;;15.34;76.43;-19620.00;5003251;27;45448;-87
2024/01/29 14:33:34;;;;;;;;;5.75;4.00;;;;;15.56;77.15;-19625.91;4997636;27;45382;-87
2024/01/29 14:38:55;;;;;;;;;5.00;5.00;;;;;15.88;78.00;-19634.09;5116675;22;45378;-85
2024/01/29 14:41:20;;;;;;;;;4.00;4.00;;;;;16.23;78.19;-19643.47;5076597;27;45765;-86
2024/01/29 14:43:47;;;;;;;;;5.75;5.00;;;;;16.30;78.18;-19645.06;5077853;27;45481;-86
2024/01/29 14:46:13;;;;;;;;;4.00;4.00;;;;;15.99;78.47;-19637.16;5065895;27;45723;-85
2024/01/29 14:48:38;;;;;;;;;5.00;5.00;;;;;15.90;78.47;-19634.63;5094911;27;46443;-85
2024/01/29 14:51:04;;;;;;;;;6.00;4.50;;;;;15.87;78.52;-19633.94;5076742;27;45496;-86
2024/01/29 14:53:29;;;;;;;;;5.00;4.50;;;;;16.23;78.24;-19643.47;5096148;27;45647;-85
2024/01/29 14:55:55;;;;;;;;;4.00;4.00;;;;;16.22;78.47;-19643.06;5096005;27;45542;-85
2024/01/29 14:58:20;;;;;;;;;5.00;3.75;;;;;15.84;79.07;-19633.16;5095883;27;46721;-85
2024/01/29 15:00:45;;;;;;;;;8.75;6.00;;;;;16.19;79.19;-19642.41;5095218;27;45389;-85
2024/01/29 15:03:13;;;;;;;;;4.25;4.25;;;;;16.28;79.33;-19644.66;5074213;28;45374;-85
2024/01/29 15:05:39;;;;;;;;;5.00;5.00;;;;;15.99;79.95;-19637.16;5093791;27;45578;-84
2024/01/29 15:08:04;;;;;;;;;5.50;4.50;;;;;15.96;79.66;-19636.22;5095527;27;46317;-85
2024/01/29 15:10:30;;;;;;;;;4.75;4.75;;;;;15.91;79.85;-19634.88;5095109;27;45539;-85
2024/01/29 15:12:55;;;;;;;;;5.50;5.50;;;;;15.92;80.21;-19635.28;5095356;27;45536;-85
2024/01/29 15:15:21;;;;;;;;;9.00;7.25;;;;;15.91;80.52;-19634.88;5095258;27;45326;-85
2024/01/29 15:17:46;;;;;;;;;9.25;7.75;;;;;15.88;80.48;-19634.09;5076403;27;47170;-85
2024/01/29 15:20:11;;;;;;;;;5.25;4.00;;;;;15.81;81.19;-19632.47;5095338;27;45482;-86
2024/01/29 15:22:37;;;;;;;;;7.00;6.50;;;;;16.02;80.93;-19637.84;5093784;27;45498;-85
2024/01/29 15:25:04;;;;;;;;;5.00;5.00;;;;;16.05;81.16;-19638.63;5094687;27;45630;-85
2024/01/29 15:27:29;;;;;;;;;5.00;5.00;;;;;15.73;81.08;-19630.34;5094847;27;46331;-85
2024/01/29 15:29:55;;;;;;;;;5.00;5.00;;;;;15.79;81.38;-19631.94;5095389;27;45534;-84
2024/01/29 15:32:20;;;;;;;;;5.00;5.00;;;;;16.06;81.35;-19638.91;5094363;27;45693;-84
2024/01/29 15:34:48;;;;;;;;;8.25;7.00;;;;;16.04;81.46;-19638.38;5095498;27;45442;-86
2024/01/29 15:37:19;;;;;;;;;7.00;7.00;;;;;16.01;81.21;-19637.72;5097899;27;46163;-84
2024/01/29 15:39:44;;;;;;;;;6.75;5.50;;;;;15.99;81.64;-19637.03;5098585;27;45384;-87
2024/01/29 15:42:14;;;;;;;;;7.50;6.00;;;;;15.92;81.54;-19635.16;5079093;27;45857;-85
2024/01/29 15:44:43;;;;;;;;;4.25;4.25;;;;;15.94;81.53;-19635.81;5098750;27;45551;-93
2024/01/29 15:47:12;;;;;;;;;5.00;5.00;;;;;15.88;81.78;-19634.22;5079799;28;47761;-96
2024/01/29 15:49:39;;;;;;;;;6.50;6.00;;;;;15.86;82.04;-19633.69;5082778;27;45891;-93
2024/01/29 15:52:06;;;;;;;;;4.75;3.00;;;;;15.83;81.81;-19633.00;5085245;27;45789;-93
2024/01/29 15:54:34;;;;;;;;;6.25;6.25;;;;;15.80;82.09;-19632.06;5086614;27;45456;-94
2024/01/29 15:57:05;;;;;;;;;5.00;5.00;;;;;15.45;82.23;-19622.94;5083845;27;48289;-93
2024/01/29 15:59:31;;;;;;;;;5.25;4.25;;;;;15.59;82.07;-19626.72;5082385;27;45600;-93
2024/01/29 16:01:57;;;;;;;;;4.50;4.50;;;;;15.65;82.22;-19628.03;5083032;27;45409;-91
2024/01/29 16:04:23;;;;;;;;;5.25;5.25;;;;;15.61;82.51;-19627.09;5079969;28;45570;-94
2024/01/29 16:06:48;;;;;;;;;4.00;4.00;;;;;15.58;82.95;-19626.44;5078354;27;47580;-93
2024/01/29 16:09:13;;;;;;;;;7.75;6.25;;;;;15.40;82.97;-19621.59;5082862;27;57300;-95
2024/01/29 16:11:39;;;;;;;;;7.25;6.00;;;;;15.24;82.86;-19617.31;5100683;27;45362;-94
2024/01/29 16:14:04;;;;;;;;;6.50;6.50;;;;;15.22;83.47;-19616.91;5083314;27;45456;-93
2024/01/29 16:16:29;;;;;;;;;4.75;4.75;;;;;15.46;83.18;-19623.09;5100720;27;46980;-94
2024/01/29 16:18:55;;;;;;;;;5.75;4.75;;;;;15.35;83.60;-19620.41;5083069;27;45504;-93
2024/01/29 16:21:22;;;;;;;;;6.25;6.25;;;;;15.31;83.40;-19619.19;5102491;27;45329;-95
2024/01/29 16:23:50;;;;;;;;;11.00;7.25;;;;;15.33;83.81;-19619.88;5096092;27;45665;-85
2024/01/29 16:26:19;;;;;;;;;6.00;4.75;;;;;15.34;84.38;-19620.00;5097217;27;46149;-90
2024/01/29 16:28:45;;;;;;;;;5.00;5.00;;;;;14.91;84.01;-19608.72;5099122;27;45350;-93
2024/01/29 16:31:10;;;;;;;;;6.67;6.67;;;;;15.19;84.67;-19616.09;5082518;27;45435;-93
2024/01/29 16:33:35;;;;;;;;;5.00;5.00;;;;;14.98;84.36;-19610.75;5074339;28;45583;-91
2024/01/29 16:36:01;;;;;;;;;12.00;8.00;;;;;15.23;84.40;-19617.19;5099088;27;46757;-92
2024/01/29 16:38:26;;;;;;;;;6.67;6.67;;;;;15.12;84.46;-19614.34;5081638;27;46078;-94
2024/01/29 16:40:51;;;;;;;;;5.75;5.75;;;;;15.06;84.36;-19612.75;5077671;27;45709;-90
2024/01/29 16:43:17;;;;;;;;;7.67;5.00;;;;;15.01;84.92;-19611.41;5097835;27;45507;-91
2024/01/29 16:45:42;;;;;;;;;7.00;5.00;;;;;14.79;84.99;-19605.63;5080055;27;53628;-88
2024/01/29 16:48:07;;;;;;;;;7.00;6.25;;;;;14.75;84.82;-19604.56;5097828;27;45425;-91
2024/01/29 16:50:33;;;;;;;;;6.25;6.25;;;;;14.74;84.71;-19604.28;5097247;27;45713;-90
2024/01/29 16:52:58;;;;;;;;;7.00;5.33;;;;;14.72;84.77;-19603.75;5083464;27;45515;-95
2024/01/29 16:55:23;;;;;;;;;4.00;4.00;;;;;14.75;84.94;-19604.56;5065687;27;47205;-89
2024/01/29 16:57:48;;;;;;;;;8.33;6.67;;;;;14.95;85.12;-19609.94;5088987;27;45508;-92
2024/01/29 17:00:14;;;;;;;;;8.00;7.67;;;;;14.89;84.80;-19608.19;5094425;27;45394;-91
2024/01/29 17:02:40;;;;;;;;;7.67;5.00;;;;;14.41;84.73;-19595.56;5077679;27;45553;-94
2024/01/29 17:05:06;;;;;;;;;7.00;5.00;;;;;13.70;84.87;-19577.16;5075260;28;48433;-96
2024/01/29 17:07:31;;;;;;;;;9.67;5.67;;;;;13.91;84.76;-19582.53;5085633;27;45562;-96
2024/01/29 17:09:57;;;;;;;;;6.00;6.00;;;;;14.55;84.90;-19599.47;5076201;27;45294;-93
2024/01/29 17:12:22;;;;;;;;;6.00;6.00;;;;;13.94;85.29;-19583.34;5091045;27;46613;-92
2024/01/29 17:14:47;;;;;;;;;7.00;4.67;;;;;14.06;84.62;-19586.56;5081529;27;48244;-85
2024/01/29 17:17:14;;;;;;;;;8.33;7.33;;;;;14.79;85.14;-19605.63;5098759;27;45400;-96
2024/01/29 17:19:40;;;;;;;;;9.33;6.00;;;;;13.77;84.75;-19578.78;5089856;27;45433;-92
2024/01/29 17:22:05;;;;;;;;;8.67;7.33;;;;;14.06;84.96;-19586.56;5076593;27;45744;-94
2024/01/29 17:24:30;;;;;;;;;7.33;7.33;;;;;14.52;85.25;-19598.66;5076266;27;48406;-94
2024/01/29 17:26:56;;;;;;;;;7.00;5.00;;;;;14.05;84.67;-19586.16;5096287;27;45846;-93
2024/01/29 17:29:21;;;;;;;;;8.00;8.00;;;;;13.90;84.95;-19582.25;5076115;27;45271;-93
2024/01/29 17:31:47;;;;;;;;;6.67;6.33;;;;;14.12;85.00;-19588.19;5081398;27;45231;-88
2024/01/29 17:34:12;;;;;;;;;7.33;7.00;;;;;14.38;85.27;-19594.75;5088925;27;45737;-87
2024/01/29 17:36:38;;;;;;;;;7.33;6.67;;;;;14.49;84.86;-19597.84;5095676;27;45378;-87
2024/01/29 17:39:05;;;;;;;;;7.00;6.33;;;;;14.52;85.29;-19598.53;5095764;27;45496;-86
2024/01/29 17:41:31;;;;;;;;;8.67;7.67;;;;;14.52;85.79;-19598.53;5095733;27;46068;-87
2024/01/29 17:43:56;;;;;;;;;8.00;7.00;;;;;14.68;85.64;-19602.81;5091461;27;46182;-86
2024/01/29 17:46:21;;;;;;;;;7.67;7.33;;;;;14.13;85.36;-19588.31;5096957;27;45471;-86
2024/01/29 17:48:47;;;;;;;;;9.00;8.00;;;;;14.02;85.89;-19585.34;5094789;27;46145;-86
2024/01/29 17:51:12;;;;;;;;;7.33;6.00;;;;;13.67;85.98;-19576.22;5097408;27;45518;-86
2024/01/29 17:53:37;;;;;;;;;10.50;7.50;;;;;14.54;85.37;-19599.06;5091968;27;45514;-87
2024/01/29 17:56:03;;;;;;;;;8.33;8.33;;;;;14.33;85.82;-19593.56;5090353;27;45460;-86
2024/01/29 17:58:28;;;;;;;;;7.67;6.67;;;;;14.05;85.59;-19586.28;5095799;27;45357;-87
2024/01/29 18:00:54;;;;;;;;;11.00;8.67;;;;;14.14;85.83;-19588.56;5090238;27;46781;-87
2024/01/29 18:03:21;;;;;;;;;9.67;8.67;;;;;14.19;86.64;-19589.94;5096371;27;53460;-87
2024/01/29 18:05:46;;;;;;;;;9.00;8.33;;;;;14.23;86.88;-19591.00;5095513;27;45436;-87
2024/01/29 18:08:12;;;;;;;;;33.33;28.67;;;;;14.36;86.87;-19594.34;5096863;27;46000;-85
2024/01/29 18:10:38;;;;;;;;;18.00;16.67;;;;;14.37;86.73;-19594.63;5089382;27;45601;-88
2024/01/29 18:13:04;;;;;;;;;16.00;14.67;;;;;14.16;87.03;-19589.13;5085891;27;45491;-89
2024/01/29 18:15:29;;;;;;;;;15.67;15.67;;;;;13.67;86.58;-19576.22;5096787;27;45476;-88
2024/01/29 18:17:54;;;;;;;;;25.67;19.00;;;;;14.10;86.81;-19587.50;5090533;27;45522;-89
2024/01/29 18:20:20;;;;;;;;;30.00;24.00;;;;;14.25;86.49;-19591.53;5096599;27;45549;-89
2024/01/29 18:22:45;;;;;;;;;19.67;19.67;;;;;13.63;86.68;-19575.28;5096772;27;46257;-86
2024/01/29 18:25:10;;;;;;;;;42.67;36.00;;;;;14.09;86.40;-19587.38;5089972;27;45933;-86
2024/01/29 18:27:36;;;;;;;;;12.67;11.33;;;;;13.92;86.60;-19582.81;5074374;27;45461;-86
2024/01/29 18:30:01;;;;;;;;;33.33;28.67;;;;;13.69;86.84;-19576.88;5096893;27;45618;-86
2024/01/29 18:32:26;;;;;;;;;31.33;30.33;;;;;13.74;87.67;-19578.09;5083364;27;46178;-86
2024/01/29 18:34:52;;;;;;;;;38.67;33.33;;;;;13.38;87.54;-19568.56;5091262;27;45728;-85